Time;durP1;ratioP1;P1;durP2;ratioP2;P2;SDS_P1;SDS_P2;PMS_P1;PMS_P2;Temp;Humidity;BMP_temperature;BMP_pressure;BME280_temperature;BME280_humidity;BME280_pressure;Samples;Min_cycle;Max_cycle;Signal;HPM_P1;HPM_P2
2021/08/22 00:00:46;;;;;;;5.75;4.50;;;;;;;18.06;83.77;99490.00;5010348;28;20057;-67
2021/08/22 00:03:11;;;;;;;8.02;5.93;;;;;;;18.02;83.39;99492.09;5010304;28;20383;-67
2021/08/22 00:05:37;;;;;;;5.75;4.47;;;;;;;18.01;83.81;99483.22;5010223;28;20107;-68
2021/08/22 00:08:02;;;;;;;6.40;5.10;;;;;;;17.99;82.60;99487.88;5009494;28;20401;-68
2021/08/22 00:10:28;;;;;;;7.90;4.65;;;;;;;17.97;82.50;99491.63;5009688;28;20095;-68
2021/08/22 00:12:54;;;;;;;6.40;4.53;;;;;;;17.96;82.72;99492.59;5010663;28;20033;-67
2021/08/22 00:15:19;;;;;;;6.40;4.80;;;;;;;17.93;82.40;99488.38;5010017;28;20375;-67
2021/08/22 00:17:44;;;;;;;5.95;4.20;;;;;;;17.92;82.21;99486.69;5009333;28;20095;-67
2021/08/22 00:20:11;;;;;;;8.60;5.32;;;;;;;17.91;82.48;99484.16;5010078;28;20026;-66
2021/08/22 00:22:37;;;;;;;9.02;5.55;;;;;;;17.89;82.61;99491.41;5010348;28;20034;-66
2021/08/22 00:25:03;;;;;;;8.40;6.00;;;;;;;17.89;82.66;99502.94;5011970;28;20041;-68
2021/08/22 00:27:29;;;;;;;8.07;5.47;;;;;;;17.90;82.73;99499.31;5010701;28;20493;-67
2021/08/22 00:29:54;;;;;;;8.75;5.80;;;;;;;17.91;82.42;99500.16;5010925;28;20038;-67
2021/08/22 00:32:19;;;;;;;8.25;5.55;;;;;;;17.92;82.67;99502.69;5010213;28;20084;-68
2021/08/22 00:34:45;;;;;;;8.45;5.70;;;;;;;17.93;82.88;99498.19;5010072;28;20037;-67
2021/08/22 00:37:10;;;;;;;7.80;5.43;;;;;;;17.92;82.74;99492.03;5009270;28;20459;-67
2021/08/22 00:39:36;;;;;;;7.45;5.72;;;;;;;17.92;83.18;99496.53;5011273;28;20042;-68
2021/08/22 00:42:01;;;;;;;8.75;6.38;;;;;;;17.92;82.76;99493.84;5011941;28;20037;-67
2021/08/22 00:44:27;;;;;;;8.95;7.47;;;;;;;17.93;83.00;99499.03;5010660;28;20058;-66
2021/08/22 00:46:55;;;;;;;11.55;7.38;;;;;;;17.94;83.00;99505.22;5008884;28;20120;-68
2021/08/22 00:49:21;;;;;;;8.82;7.30;;;;;;;17.93;83.16;99508.88;5009867;28;20048;-68
2021/08/22 00:51:46;;;;;;;12.00;8.63;;;;;;;17.96;83.37;99511.28;5009924;28;20057;-68
2021/08/22 00:54:12;;;;;;;13.77;8.05;;;;;;;17.98;83.21;99506.66;5009769;28;20056;-68
2021/08/22 00:56:41;;;;;;;12.48;8.82;;;;;;;17.99;82.91;99503.88;5006018;28;20084;-67
2021/08/22 00:59:09;;;;;;;11.48;7.85;;;;;;;18.00;83.69;99504.72;5010200;28;20030;-68
2021/08/22 01:01:36;;;;;;;10.30;8.15;;;;;;;18.01;83.11;99503.72;4963334;28;20201;-68
2021/08/22 01:04:18;;;;;;;9.18;8.18;;;;;;;18.03;83.07;99499.09;5009746;28;20034;-67
2021/08/22 01:07:14;;;;;;;9.43;7.25;;;;;;;18.05;82.99;99494.50;5010350;28;20037;-68
2021/08/22 01:09:44;;;;;;;9.98;7.47;;;;;;;18.04;83.27;99490.16;5010034;28;20698;-68
2021/08/22 01:12:16;;;;;;;10.85;9.40;;;;;;;18.03;83.07;99489.28;5010390;28;20050;-68
2021/08/22 01:14:46;;;;;;;11.65;8.30;;;;;;;18.07;83.09;99487.22;5009743;28;20052;-67
2021/08/22 01:17:12;;;;;;;10.23;9.15;;;;;;;18.08;83.20;99488.88;5008712;28;20061;-68
2021/08/22 01:20:02;;;;;;;11.73;10.45;;;;;;;18.10;83.17;99488.78;5005757;28;20037;-68
2021/08/22 01:22:28;;;;;;;12.48;11.20;;;;;;;18.07;82.62;99495.22;5009284;28;20612;-68
2021/08/22 01:24:56;;;;;;;12.45;11.15;;;;;;;18.08;82.62;99506.72;5009665;28;20042;-68
2021/08/22 01:27:22;;;;;;;14.93;12.10;;;;;;;18.10;82.58;99499.44;5008866;28;20034;-68
2021/08/22 01:30:15;;;;;;;12.77;11.30;;;;;;;18.10;82.56;99497.63;5009372;28;20038;-68
2021/08/22 01:32:48;;;;;;;13.13;11.65;;;;;;;18.09;82.61;99493.28;5003486;28;20498;-68
2021/08/22 01:35:17;;;;;;;15.02;13.52;;;;;;;18.07;81.75;99495.22;5009178;28;20112;-67
2021/08/22 01:37:44;;;;;;;15.23;13.73;;;;;;;18.08;81.82;99496.06;5008270;28;20033;-68
2021/08/22 01:40:11;;;;;;;16.77;15.05;;;;;;;18.07;82.06;99502.38;5008420;28;20041;-68
2021/08/22 01:42:42;;;;;;;16.92;15.20;;;;;;;18.05;81.78;99507.84;5008982;28;20121;-68
2021/08/22 01:45:10;;;;;;;17.33;15.52;;;;;;;18.04;81.94;99508.81;5008793;28;20454;-67
2021/08/22 01:47:39;;;;;;;18.27;16.45;;;;;;;18.03;81.53;99507.94;5008349;28;20398;-67
2021/08/22 01:50:05;;;;;;;17.48;15.68;;;;;;;18.02;81.71;99508.09;5008443;28;20076;-68
2021/08/22 01:52:34;;;;;;;19.95;16.65;;;;;;;18.01;81.69;99506.38;5008822;28;20056;-67
2021/08/22 01:55:02;;;;;;;22.42;18.70;;;;;;;17.98;81.09;99506.66;5008694;28;20030;-68
2021/08/22 01:57:28;;;;;;;18.92;16.85;;;;;;;17.96;81.11;99509.44;5007719;28;20065;-67
2021/08/22 01:59:53;;;;;;;19.88;17.05;;;;;;;17.93;81.01;99515.03;5012095;28;20060;-65
2021/08/22 02:02:19;;;;;;;18.20;16.25;;;;;;;17.89;81.30;99515.44;5012488;28;20030;-67
2021/08/22 02:04:53;;;;;;;19.05;17.10;;;;;;;17.88;81.55;99522.59;5012611;28;20397;-68
2021/08/22 02:07:25;;;;;;;23.35;18.95;;;;;;;17.82;81.34;99517.78;5011719;28;20068;-67
2021/08/22 02:09:56;;;;;;;21.08;18.98;;;;;;;17.76;81.68;99529.75;5012232;28;20034;-67
2021/08/22 02:12:22;;;;;;;19.92;17.92;;;;;;;17.72;81.33;99522.13;5012552;28;20034;-68
2021/08/22 02:15:11;;;;;;;19.30;17.45;;;;;;;17.74;81.54;99529.03;5012376;28;20040;-67
2021/08/22 02:17:47;;;;;;;17.40;15.57;;;;;;;17.75;81.34;99527.22;5011074;28;20025;-67
2021/08/22 02:20:13;;;;;;;17.42;15.38;;;;;;;17.76;81.49;99519.09;5012056;28;20337;-68
2021/08/22 02:22:42;;;;;;;21.65;18.70;;;;;;;17.80;81.70;99520.56;5012233;28;20038;-68
2021/08/22 02:25:08;;;;;;;17.35;15.55;;;;;;;17.83;81.82;99524.78;5012315;28;20049;-67
2021/08/22 02:27:34;;;;;;;24.88;18.80;;;;;;;17.86;81.85;99521.03;5011848;28;20088;-68
2021/08/22 02:30:00;;;;;;;19.15;17.15;;;;;;;17.82;80.88;99528.44;5011967;28;20046;-67
2021/08/22 02:32:25;;;;;;;18.80;16.80;;;;;;;17.83;80.92;99529.28;5012564;28;20414;-68
2021/08/22 02:34:51;;;;;;;20.25;16.40;;;;;;;17.81;81.34;99530.25;5011838;28;20041;-68
2021/08/22 02:37:17;;;;;;;16.02;14.32;;;;;;;17.77;82.16;99526.13;5011636;28;20048;-68
2021/08/22 02:39:43;;;;;;;20.48;18.38;;;;;;;17.76;81.62;99528.91;5012092;28;20030;-67
2021/08/22 02:42:09;;;;;;;17.02;15.32;;;;;;;17.73;80.63;99535.34;5011890;28;20038;-67
2021/08/22 02:44:34;;;;;;;18.30;15.90;;;;;;;17.70;80.50;99537.44;5011705;28;20057;-67
2021/08/22 02:46:59;;;;;;;22.42;14.70;;;;;;;17.66;80.33;99530.66;5009535;28;20391;-67
2021/08/22 02:49:25;;;;;;;16.10;14.40;;;;;;;17.58;80.07;99525.97;5008465;28;20600;-67
2021/08/22 02:51:50;;;;;;;15.00;13.40;;;;;;;17.56;80.28;99525.22;5011460;28;20486;-67
2021/08/22 02:54:16;;;;;;;17.98;14.30;;;;;;;17.50;80.01;99523.94;5011533;28;20348;-67
2021/08/22 02:56:41;;;;;;;15.98;13.95;;;;;;;17.43;80.53;99525.41;5010872;28;20034;-67
2021/08/22 02:59:06;;;;;;;16.67;13.80;;;;;;;17.37;80.17;99532.06;5010864;28;20030;-67
2021/08/22 03:01:33;;;;;;;16.77;13.60;;;;;;;17.35;80.55;99534.03;5011289;28;20060;-68
2021/08/22 03:03:58;;;;;;;16.25;13.82;;;;;;;17.33;80.21;99530.63;5011120;28;20038;-68
2021/08/22 03:06:24;;;;;;;15.50;12.95;;;;;;;17.31;80.98;99526.41;5010940;28;20034;-66
2021/08/22 03:08:49;;;;;;;14.20;12.77;;;;;;;17.27;80.82;99528.47;5011056;28;20088;-66
2021/08/22 03:11:18;;;;;;;18.52;14.85;;;;;;;17.24;80.52;99530.53;5010470;28;20061;-66
2021/08/22 03:13:45;;;;;;;17.65;15.48;;;;;;;17.20;80.57;99529.09;5011332;28;20030;-66
2021/08/22 03:16:10;;;;;;;18.15;13.77;;;;;;;17.13;80.53;99524.25;5011100;28;20640;-67
2021/08/22 03:18:36;;;;;;;19.40;15.68;;;;;;;17.09;80.94;99530.78;5010312;28;20034;-67
2021/08/22 03:21:01;;;;;;;19.25;14.80;;;;;;;17.07;80.49;99532.72;5010839;28;20036;-67
2021/08/22 03:23:26;;;;;;;16.63;14.20;;;;;;;17.04;80.78;99534.81;5008985;28;20050;-68
2021/08/22 03:25:52;;;;;;;17.80;14.38;;;;;;;17.00;80.92;99531.53;5011195;28;20058;-67
2021/08/22 03:28:17;;;;;;;17.35;14.27;;;;;;;16.95;80.96;99528.38;5010628;28;20600;-67
2021/08/22 03:30:42;;;;;;;15.48;13.30;;;;;;;16.92;81.19;99534.81;5011401;28;20421;-68
2021/08/22 03:33:08;;;;;;;15.35;13.15;;;;;;;16.90;80.96;99531.41;5011457;28;20099;-67
2021/08/22 03:35:33;;;;;;;17.58;14.70;;;;;;;16.88;80.84;99529.84;5010704;28;20478;-67
2021/08/22 03:37:59;;;;;;;18.95;13.88;;;;;;;16.89;80.94;99537.72;5010266;28;20038;-67
2021/08/22 03:40:24;;;;;;;15.50;12.75;;;;;;;16.90;81.04;99525.25;5011191;28;20058;-67
2021/08/22 03:42:49;;;;;;;18.80;15.85;;;;;;;16.88;80.95;99533.38;5010351;28;20026;-67
2021/08/22 03:45:15;;;;;;;16.45;14.10;;;;;;;16.88;81.12;99533.38;5010838;28;20069;-68
2021/08/22 03:47:40;;;;;;;20.02;15.02;;;;;;;16.88;81.14;99535.16;5010309;28;20073;-67
2021/08/22 03:50:06;;;;;;;25.65;15.57;;;;;;;16.89;80.88;99523.56;5010585;28;20120;-68
2021/08/22 03:52:32;;;;;;;17.88;15.48;;;;;;;16.88;81.32;99536.03;5010760;28;20034;-66
2021/08/22 03:54:57;;;;;;;17.73;15.43;;;;;;;16.91;80.91;99530.47;5010947;28;20376;-68
2021/08/22 03:57:22;;;;;;;17.00;14.30;;;;;;;16.92;81.12;99532.16;5009803;28;20152;-67
2021/08/22 03:59:48;;;;;;;16.50;13.45;;;;;;;16.93;81.26;99525.88;5010514;28;20438;-68
2021/08/22 04:02:13;;;;;;;16.10;13.23;;;;;;;16.93;81.17;99525.88;5010281;28;20053;-67
2021/08/22 04:04:38;;;;;;;19.05;14.35;;;;;;;16.90;80.92;99523.44;5010186;28;20379;-67
2021/08/22 04:07:05;;;;;;;21.30;15.13;;;;;;;16.90;80.92;99531.41;5009563;28;20026;-67
2021/08/22 04:09:30;;;;;;;17.60;14.38;;;;;;;16.91;81.27;99525.13;5009868;28;20041;-67
2021/08/22 04:11:57;;;;;;;16.27;13.27;;;;;;;16.96;81.30;99522.09;5010912;28;20079;-67
2021/08/22 04:14:22;;;;;;;15.80;13.35;;;;;;;16.98;81.13;99516.66;5010697;28;20053;-67
2021/08/22 04:16:48;;;;;;;18.48;14.25;;;;;;;16.95;80.91;99518.56;5009238;28;20125;-67
2021/08/22 04:19:14;;;;;;;19.25;13.27;;;;;;;17.00;81.10;99522.69;5009946;28;20022;-68
2021/08/22 04:21:41;;;;;;;18.17;14.63;;;;;;;17.03;80.74;99519.78;5009984;28;20057;-67
2021/08/22 04:24:07;;;;;;;17.00;12.27;;;;;;;17.04;80.71;99517.00;5010074;28;20034;-67
2021/08/22 04:26:33;;;;;;;14.68;11.75;;;;;;;17.06;80.64;99517.72;5009128;28;20559;-67
2021/08/22 04:28:58;;;;;;;20.50;12.13;;;;;;;17.05;80.85;99515.19;4991244;28;20038;-67
2021/08/22 04:31:23;;;;;;;15.43;12.25;;;;;;;17.02;80.59;99515.44;5010367;28;20068;-67
2021/08/22 04:33:49;;;;;;;12.55;10.77;;;;;;;17.04;80.91;99527.66;5010043;28;20087;-66
2021/08/22 04:36:14;;;;;;;18.35;11.10;;;;;;;17.04;80.63;99524.16;5010010;28;20029;-67
2021/08/22 04:38:39;;;;;;;12.82;11.30;;;;;;;17.03;80.93;99518.00;5009081;28;20037;-67
2021/08/22 04:41:05;;;;;;;13.95;12.13;;;;;;;17.05;80.96;99525.84;5009702;28;20059;-67
2021/08/22 04:43:30;;;;;;;13.55;11.73;;;;;;;17.01;81.40;99529.75;5009774;28;20037;-67
2021/08/22 04:45:55;;;;;;;16.45;10.55;;;;;;;17.00;81.10;99531.53;5009824;28;20129;-67
2021/08/22 04:48:21;;;;;;;14.23;11.57;;;;;;;17.00;81.07;99530.69;5008611;28;20042;-67
2021/08/22 04:50:47;;;;;;;17.35;12.98;;;;;;;16.98;81.67;99535.28;5009769;28;20069;-67
2021/08/22 04:53:12;;;;;;;15.20;12.50;;;;;;;16.99;81.86;99529.84;5009384;28;20088;-67
2021/08/22 04:55:38;;;;;;;28.25;14.02;;;;;;;17.01;81.83;99527.91;5009456;28;20057;-67
2021/08/22 04:58:03;;;;;;;15.60;11.93;;;;;;;17.05;81.83;99533.81;5008439;28;20041;-68
2021/08/22 05:00:28;;;;;;;15.55;12.45;;;;;;;17.08;81.92;99530.91;5006122;28;20077;-68
2021/08/22 05:02:54;;;;;;;15.55;13.32;;;;;;;17.10;82.28;99527.16;5009618;28;20124;-66
2021/08/22 05:05:20;;;;;;;16.58;12.45;;;;;;;17.12;82.12;99524.38;5009126;28;20446;-68
2021/08/22 05:07:45;;;;;;;15.55;13.35;;;;;;;17.14;82.17;99523.28;5008196;28;20405;-67
2021/08/22 05:10:10;;;;;;;14.77;11.73;;;;;;;17.16;81.99;99526.66;5008929;28;20034;-67
2021/08/22 05:12:36;;;;;;;16.98;12.55;;;;;;;17.20;81.97;99532.59;5009360;28;20030;-67
2021/08/22 05:15:01;;;;;;;15.35;12.15;;;;;;;17.23;82.08;99531.50;5009050;28;20036;-66
2021/08/22 05:17:27;;;;;;;17.48;12.77;;;;;;;17.26;82.23;99525.94;4996416;28;20214;-67
2021/08/22 05:19:52;;;;;;;22.80;17.90;;;;;;;17.27;83.11;99522.28;4999528;28;20030;-67
2021/08/22 05:22:17;;;;;;;20.38;13.60;;;;;;;17.26;83.02;99533.94;4985771;28;20627;-68
2021/08/22 05:24:43;;;;;;;19.40;12.63;;;;;;;17.27;83.01;99536.44;4989733;28;20041;-67
2021/08/22 05:27:08;;;;;;;15.90;13.02;;;;;;;17.25;83.21;99538.38;4989092;28;20394;-68
2021/08/22 05:29:33;;;;;;;15.43;13.23;;;;;;;17.25;83.42;99541.03;5000610;28;20038;-67
2021/08/22 05:32:01;;;;;;;17.73;12.98;;;;;;;17.25;83.61;99538.38;5009090;28;20064;-67
2021/08/22 05:34:26;;;;;;;16.02;14.30;;;;;;;17.24;83.68;99534.03;5012045;28;20116;-68
2021/08/22 05:36:51;;;;;;;21.70;15.15;;;;;;;17.26;83.70;99532.09;5012151;28;20565;-66
2021/08/22 05:39:17;;;;;;;22.75;16.58;;;;;;;17.28;83.64;99538.16;5012709;28;20564;-66
2021/08/22 05:41:42;;;;;;;19.25;14.15;;;;;;;17.28;83.71;99532.00;5013032;28;20038;-67
2021/08/22 05:44:07;;;;;;;16.45;12.95;;;;;;;17.33;83.60;99543.13;5012888;28;20401;-67
2021/08/22 05:46:33;;;;;;;17.77;13.23;;;;;;;17.37;83.62;99542.72;5011615;28;20061;-68
2021/08/22 05:48:58;;;;;;;17.15;14.05;;;;;;;17.41;83.35;99550.50;5013842;28;20049;-67
2021/08/22 05:51:23;;;;;;;14.95;12.63;;;;;;;17.39;83.30;99556.78;5013594;28;20073;-68
2021/08/22 05:53:49;;;;;;;16.13;13.40;;;;;;;17.39;83.60;99551.44;4995796;28;20121;-68
2021/08/22 05:56:17;;;;;;;16.00;13.63;;;;;;;17.38;83.76;99565.75;5012857;28;20034;-67
2021/08/22 05:58:43;;;;;;;16.90;15.05;;;;;;;17.32;84.15;99571.56;5012583;28;20048;-68
2021/08/22 06:01:08;;;;;;;24.55;18.33;;;;;;;17.26;84.58;99571.22;5012408;28;20771;-68
2021/08/22 06:03:33;;;;;;;26.23;17.38;;;;;;;17.22;85.74;99565.28;5012672;28;20037;-68
2021/08/22 06:05:58;;;;;;;33.70;21.95;;;;;;;17.17;86.00;99559.47;5012751;28;20704;-67
2021/08/22 06:08:24;;;;;;;17.45;13.95;;;;;;;17.17;86.58;99564.81;5011847;28;20050;-68
2021/08/22 06:10:50;;;;;;;16.63;11.32;;;;;;;17.21;86.57;99570.75;5012266;28;20041;-66
2021/08/22 06:13:15;;;;;;;14.88;10.90;;;;;;;17.22;86.43;99573.28;5012433;28;20060;-67
2021/08/22 06:15:41;;;;;;;15.20;13.00;;;;;;;17.24;86.01;99582.00;5012275;28;20030;-66
2021/08/22 06:18:06;;;;;;;16.02;9.57;;;;;;;17.24;85.51;99568.69;5011450;28;20029;-67
2021/08/22 06:20:31;;;;;;;13.23;10.15;;;;;;;17.31;85.30;99569.03;5012105;28;20113;-67
2021/08/22 06:22:57;;;;;;;13.25;9.82;;;;;;;17.35;84.91;99570.47;5012396;28;20053;-67
2021/08/22 06:25:22;;;;;;;12.20;10.88;;;;;;;17.39;84.18;99569.25;5012274;28;20029;-67
2021/08/22 06:27:48;;;;;;;14.65;10.85;;;;;;;17.43;84.11;99572.53;5011532;28;20111;-67
2021/08/22 06:30:14;;;;;;;14.25;12.50;;;;;;;17.46;84.22;99566.94;5011871;28;20482;-68
2021/08/22 06:32:39;;;;;;;17.38;12.13;;;;;;;17.52;84.34;99574.44;5012093;28;20045;-68
2021/08/22 06:35:05;;;;;;;12.65;11.25;;;;;;;17.56;83.96;99574.06;5011913;28;20030;-67
2021/08/22 06:37:30;;;;;;;14.43;11.77;;;;;;;17.62;83.87;99564.69;5010902;28;20080;-67
2021/08/22 06:39:55;;;;;;;15.15;13.55;;;;;;;17.60;83.89;99577.34;5012121;28;20486;-68
2021/08/22 06:42:21;;;;;;;17.10;12.05;;;;;;;17.57;83.68;99574.91;5010477;28;20049;-67
2021/08/22 06:44:46;;;;;;;16.42;14.50;;;;;;;17.56;83.68;99574.06;5010755;28;20081;-68
2021/08/22 06:47:11;;;;;;;14.30;12.68;;;;;;;17.52;83.51;99577.09;5010710;28;20165;-68
2021/08/22 06:49:37;;;;;;;13.27;11.88;;;;;;;17.50;83.76;99576.38;5010088;28;20038;-67
2021/08/22 06:52:07;;;;;;;14.55;12.32;;;;;;;17.49;83.92;99588.00;5011630;28;20044;-67
2021/08/22 06:54:33;;;;;;;12.32;11.02;;;;;;;17.48;83.33;99583.66;5011778;28;20034;-68
2021/08/22 06:56:58;;;;;;;14.68;11.25;;;;;;;17.47;83.69;99595.28;5011222;28;20037;-67
2021/08/22 06:59:24;;;;;;;12.55;11.25;;;;;;;17.42;84.26;99595.66;5011593;28;20061;-67
2021/08/22 07:01:50;;;;;;;13.18;10.45;;;;;;;17.42;84.04;99590.31;5011635;28;20117;-67
2021/08/22 07:04:16;;;;;;;12.27;10.68;;;;;;;17.41;83.20;99587.78;5008641;28;20034;-69
2021/08/22 07:06:41;;;;;;;13.73;10.82;;;;;;;17.44;83.81;99592.88;5011284;28;20049;-67
2021/08/22 07:09:07;;;;;;;13.13;10.82;;;;;;;17.49;83.36;99588.00;5011621;28;20033;-67
2021/08/22 07:11:32;;;;;;;14.75;11.75;;;;;;;17.55;82.93;99595.53;5011938;28;20037;-68
2021/08/22 07:13:58;;;;;;;13.38;11.50;;;;;;;17.56;82.79;99589.22;5012098;28;20116;-67
2021/08/22 07:16:25;;;;;;;16.55;13.95;;;;;;;17.60;82.71;99588.00;5011573;28;20106;-67
2021/08/22 07:18:50;;;;;;;17.02;14.30;;;;;;;17.67;82.77;99590.97;5011999;28;20034;-68
2021/08/22 07:21:16;;;;;;;16.52;14.38;;;;;;;17.75;82.73;99597.41;5011447;28;20107;-68
2021/08/22 07:23:43;;;;;;;18.85;15.23;;;;;;;17.76;83.12;99592.91;5010726;28;20065;-67
2021/08/22 07:26:08;;;;;;;16.50;14.48;;;;;;;17.76;82.87;99601.75;5011559;28;20036;-67
2021/08/22 07:28:34;;;;;;;17.80;15.13;;;;;;;17.76;82.23;99600.91;5010319;28;20460;-67
2021/08/22 07:31:04;;;;;;;18.33;14.65;;;;;;;17.78;82.45;99596.31;5011870;28;20052;-67
2021/08/22 07:33:30;;;;;;;16.02;14.20;;;;;;;17.80;82.36;99597.91;5007951;28;20120;-66
2021/08/22 07:35:55;;;;;;;17.65;14.20;;;;;;;17.86;82.15;99601.88;5011314;28;20425;-67
2021/08/22 07:38:20;;;;;;;22.50;15.68;;;;;;;17.90;81.89;99600.66;5009868;28;20055;-68
2021/08/22 07:40:46;;;;;;;20.20;13.63;;;;;;;17.93;81.61;99594.22;5009063;28;20030;-68
2021/08/22 07:43:12;;;;;;;17.27;13.77;;;;;;;17.98;81.54;99597.34;5010559;28;20083;-68
2021/08/22 07:45:37;;;;;;;16.25;13.85;;;;;;;18.03;81.36;99609.31;5010740;28;20026;-69
2021/08/22 07:48:03;;;;;;;17.00;14.23;;;;;;;18.12;81.34;99599.72;5008280;28;20089;-66
2021/08/22 07:50:28;;;;;;;15.38;13.63;;;;;;;18.15;80.90;99599.44;5011168;28;20034;-67
2021/08/22 07:52:53;;;;;;;16.17;12.93;;;;;;;18.22;81.26;99603.31;5010695;28;20237;-68
2021/08/22 07:55:19;;;;;;;16.23;13.10;;;;;;;18.24;80.28;99605.84;5011020;28;20038;-67
2021/08/22 07:57:44;;;;;;;19.33;15.18;;;;;;;18.27;80.38;99608.25;5009315;28;20034;-67
2021/08/22 08:00:10;;;;;;;17.23;15.48;;;;;;;18.35;80.73;99604.94;5009914;28;20044;-67
2021/08/22 08:02:35;;;;;;;17.30;15.35;;;;;;;18.41;81.26;99609.75;5008983;28;20030;-66
2021/08/22 08:05:01;;;;;;;15.38;12.77;;;;;;;18.51;80.67;99605.34;5010134;28;20119;-66
2021/08/22 08:07:26;;;;;;;16.58;14.85;;;;;;;18.60;79.86;99611.69;5010034;28;20113;-67
2021/08/22 08:09:51;;;;;;;17.85;12.98;;;;;;;18.63;80.49;99606.09;5010100;28;20038;-67
2021/08/22 08:12:17;;;;;;;16.83;13.10;;;;;;;18.74;80.16;99605.19;5010448;28;20081;-66
2021/08/22 08:14:42;;;;;;;14.00;12.50;;;;;;;19.02;79.36;99609.84;5009793;28;20049;-68
2021/08/22 08:17:08;;;;;;;14.88;13.35;;;;;;;19.29;78.27;99606.56;5008617;28;20037;-68
2021/08/22 08:19:34;;;;;;;12.52;10.52;;;;;;;19.48;77.55;99603.13;5009748;28;20029;-68
2021/08/22 08:21:59;;;;;;;10.55;9.45;;;;;;;19.66;75.92;99602.44;5010239;28;20030;-67
2021/08/22 08:24:24;;;;;;;12.75;11.43;;;;;;;19.64;75.55;99604.41;5008140;28;20068;-67
2021/08/22 08:26:50;;;;;;;12.45;11.15;;;;;;;19.57;74.22;99603.28;5009352;28;26048;-67
2021/08/22 08:29:15;;;;;;;12.25;10.88;;;;;;;19.37;73.30;99619.28;5009717;28;20052;-67
2021/08/22 08:31:41;;;;;;;15.38;10.10;;;;;;;19.27;74.68;99611.22;5010105;28;20105;-67
2021/08/22 08:34:06;;;;;;;11.60;10.13;;;;;;;19.15;73.95;99614.97;5008984;28;20029;-66
2021/08/22 08:36:31;;;;;;;11.05;9.80;;;;;;;19.02;73.38;99617.00;5008832;28;20424;-66
2021/08/22 08:38:57;;;;;;;12.80;9.48;;;;;;;18.91;74.45;99619.78;5009995;28;20038;-66
2021/08/22 08:41:22;;;;;;;11.95;8.95;;;;;;;18.84;73.13;99617.63;5010002;28;20045;-67
2021/08/22 08:43:50;;;;;;;14.40;9.77;;;;;;;18.81;72.90;99622.41;5008982;28;20037;-67
2021/08/22 08:46:21;;;;;;;11.00;8.52;;;;;;;18.82;72.93;99616.06;5010826;28;20058;-67
2021/08/22 08:49:03;;;;;;;10.45;8.43;;;;;;;18.84;73.63;99620.31;5010059;28;20112;-68
2021/08/22 08:51:40;;;;;;;8.82;7.82;;;;;;;18.90;72.63;99618.09;5010379;28;20041;-67
2021/08/22 08:54:10;;;;;;;11.52;8.60;;;;;;;19.08;71.87;99622.69;5010721;28;20037;-68
2021/08/22 08:56:40;;;;;;;10.02;7.95;;;;;;;19.21;70.48;99625.13;5009944;28;20978;-68
2021/08/22 08:59:06;;;;;;;10.32;7.43;;;;;;;19.33;70.00;99617.84;5008825;28;20044;-68
2021/08/22 09:01:31;;;;;;;9.55;7.28;;;;;;;19.60;69.61;99611.88;5008973;28;20034;-67
2021/08/22 09:04:27;;;;;;;8.25;6.63;;;;;;;19.93;69.43;99617.84;4991182;28;20061;-67
2021/08/22 09:07:30;;;;;;;9.88;7.07;;;;;;;20.01;69.38;99619.81;4989353;28;20093;-68
2021/08/22 09:10:33;;;;;;;7.20;5.75;;;;;;;20.35;66.89;99610.41;5009211;28;20033;-69
2021/08/22 09:13:42;;;;;;;9.68;5.60;;;;;;;20.47;63.97;99607.56;5006946;28;20040;-68
2021/08/22 09:16:38;;;;;;;7.28;4.53;;;;;;;20.35;62.63;99617.56;4992638;28;20038;-68
2021/08/22 09:19:22;;;;;;;;;;;;;;;20.33;61.24;99608.81;5005112;28;20041;-70
2021/08/22 09:22:27;;;;;;;7.88;4.53;;;;;;;20.42;59.79;99609.81;4990602;28;19936;-71
2021/08/22 09:25:29;;;;;;;8.02;4.55;;;;;;;20.50;58.90;99607.25;4977602;28;20034;-73
2021/08/22 09:28:32;;;;;;;7.03;4.28;;;;;;;20.75;58.39;99609.38;4992270;28;20042;-69
2021/08/22 09:31:36;;;;;;;7.15;4.00;;;;;;;21.17;56.72;99603.59;4990022;28;20038;-70
2021/08/22 09:34:39;;;;;;;7.40;4.30;;;;;;;22.07;54.35;99609.09;4983001;28;20048;-73
2021/08/22 09:37:07;;;;;;;7.82;4.65;;;;;;;23.47;51.34;99598.28;4978846;28;20041;-69
2021/08/22 09:39:38;;;;;;;9.10;4.75;;;;;;;23.81;50.02;99591.19;4995200;28;20605;-69
2021/08/22 09:42:40;;;;;;;7.75;4.65;;;;;;;23.52;50.35;99597.81;4983422;28;20037;-69
2021/08/22 09:45:34;;;;;;;6.22;3.65;;;;;;;22.99;52.13;99591.72;4985252;28;20042;-69
2021/08/22 09:48:36;;;;;;;9.35;4.50;;;;;;;23.19;50.92;99586.94;4985337;28;20065;-70
2021/08/22 09:51:03;;;;;;;8.48;3.28;;;;;;;23.01;51.45;99591.53;4983355;28;20038;-71
2021/08/22 09:54:05;;;;;;;8.07;4.28;;;;;;;23.34;50.60;99581.78;4967184;28;20480;-71
2021/08/22 09:57:08;;;;;;;6.10;3.58;;;;;;;22.92;51.19;99586.09;4984413;28;20073;-72
2021/08/22 09:59:33;;;;;;;8.45;4.53;;;;;;;23.25;51.05;99580.03;4984650;28;20125;-71
2021/08/22 10:02:27;;;;;;;4.97;3.40;;;;;;;23.06;50.80;99579.31;4985926;28;20562;-69
2021/08/22 10:05:01;;;;;;;6.85;3.97;;;;;;;22.72;51.97;99584.63;4975775;28;20071;-71
2021/08/22 10:07:35;;;;;;;7.45;4.38;;;;;;;22.76;51.03;99583.31;4965694;28;20093;-69
2021/08/22 10:10:37;;;;;;;5.57;3.97;;;;;;;23.82;48.80;99582.09;4963856;28;20183;-69
2021/08/22 10:13:03;;;;;;;7.38;4.32;;;;;;;24.89;46.28;99581.03;4964493;28;20632;-73
2021/08/22 10:15:29;;;;;;;9.25;4.95;;;;;;;25.57;45.03;99576.06;4974564;28;20089;-73
2021/08/22 10:17:55;;;;;;;10.18;4.00;;;;;;;25.58;44.57;99578.59;5001419;28;20046;-68
2021/08/22 10:20:20;;;;;;;7.38;3.33;;;;;;;25.05;45.95;99588.22;4989668;28;20042;-71
2021/08/22 10:22:51;;;;;;;6.00;4.03;;;;;;;24.40;47.33;99584.63;4990263;28;20031;-70
2021/08/22 10:25:47;;;;;;;7.57;3.80;;;;;;;24.05;48.04;99593.06;4989392;28;20065;-71
2021/08/22 10:28:12;;;;;;;6.70;4.18;;;;;;;23.78;49.20;99590.50;4988318;28;20057;-73
2021/08/22 10:30:44;;;;;;;5.72;4.13;;;;;;;23.42;49.39;99591.72;4985674;28;20507;-72
2021/08/22 10:33:11;;;;;;;10.05;4.38;;;;;;;23.02;50.86;99598.63;4986915;28;20076;-71
2021/08/22 10:35:37;;;;;;;9.13;4.15;;;;;;;22.66;52.52;99604.06;4991233;28;20829;-69
2021/08/22 10:38:19;;;;;;;8.27;4.75;;;;;;;22.08;52.65;99603.59;5006530;28;20164;-69
2021/08/22 10:40:45;;;;;;;7.43;4.63;;;;;;;21.76;54.18;99603.28;4996623;28;20034;-71
2021/08/22 10:43:10;;;;;;;9.57;5.53;;;;;;;21.53;54.57;99605.53;4991610;28;20066;-68
2021/08/22 10:45:41;;;;;;;6.20;4.10;;;;;;;21.22;55.94;99608.50;4986948;28;20129;-69
2021/08/22 10:48:08;;;;;;;7.30;3.80;;;;;;;20.98;56.66;99611.69;4983615;28;20053;-70
2021/08/22 10:50:58;;;;;;;9.43;4.30;;;;;;;20.86;57.66;99602.16;4987096;28;20684;-71
2021/08/22 10:53:25;;;;;;;6.82;3.80;;;;;;;20.67;57.39;99611.91;4986471;28;20100;-74
2021/08/22 10:55:52;;;;;;;8.85;3.90;;;;;;;20.59;57.19;99617.16;4985280;28;20026;-70
2021/08/22 10:58:17;;;;;;;6.95;3.83;;;;;;;20.58;57.95;99615.47;4985129;28;20030;-70
2021/08/22 11:00:43;;;;;;;6.70;3.95;;;;;;;20.56;57.87;99612.09;4986875;28;20047;-69
2021/08/22 11:03:17;;;;;;;7.07;3.90;;;;;;;20.61;57.85;99622.38;4986800;28;20033;-69
2021/08/22 11:05:44;;;;;;;9.10;4.47;;;;;;;20.57;57.82;99622.63;4986260;28;20032;-69
2021/08/22 11:08:20;;;;;;;9.73;3.92;;;;;;;20.56;57.95;99614.78;4984441;28;20122;-73
2021/08/22 11:11:05;;;;;;;8.80;4.43;;;;;;;20.54;58.46;99620.22;4985207;28;20042;-70
2021/08/22 11:13:41;;;;;;;12.20;4.30;;;;;;;20.55;58.48;99616.59;4985533;28;20039;-71
2021/08/22 11:16:08;;;;;;;6.15;3.97;;;;;;;20.49;58.13;99610.94;4986705;28;20085;-73
2021/08/22 11:18:35;;;;;;;8.93;3.83;;;;;;;20.37;58.46;99616.44;4999973;28;20103;-70
2021/08/22 11:21:01;;;;;;;6.60;4.10;;;;;;;20.21;60.42;99618.88;4988674;28;20475;-72
2021/08/22 11:23:26;;;;;;;12.77;6.07;;;;;;;20.07;61.27;99616.59;4986917;28;20486;-71
2021/08/22 11:26:20;;;;;;;10.32;4.20;;;;;;;19.86;61.54;99606.88;4987176;28;20040;-71
2021/08/22 11:28:54;;;;;;;8.15;4.47;;;;;;;19.74;62.24;99613.34;4966422;28;20097;-69
2021/08/22 11:31:20;;;;;;;7.43;4.10;;;;;;;19.67;62.83;99617.53;4965680;28;20047;-70